sensor_id;sensor_type;location;lat;lon;timestamp;temperature;humidity
1011;DHT22;494;48.744;10.106;2023-03-14T00:00:07;10.90;59.60
1011;DHT22;494;48.744;10.106;2023-03-14T00:02:38;10.80;59.10
1011;DHT22;494;48.744;10.106;2023-03-14T00:05:08;10.80;59.60
1011;DHT22;494;48.744;10.106;2023-03-14T00:07:38;10.70;60.00
1011;DHT22;494;48.744;10.106;2023-03-14T00:10:09;10.60;60.50
1011;DHT22;494;48.744;10.106;2023-03-14T00:12:41;10.60;61.40
1011;DHT22;494;48.744;10.106;2023-03-14T00:15:11;10.60;61.50
1011;DHT22;494;48.744;10.106;2023-03-14T00:17:43;10.60;61.80
1011;DHT22;494;48.744;10.106;2023-03-14T00:20:12;10.70;61.70
1011;DHT22;494;48.744;10.106;2023-03-14T00:22:41;10.80;61.60
1011;DHT22;494;48.744;10.106;2023-03-14T00:25:11;10.80;61.60
1011;DHT22;494;48.744;10.106;2023-03-14T00:27:40;10.80;61.20
1011;DHT22;494;48.744;10.106;2023-03-14T00:30:11;10.50;61.90
1011;DHT22;494;48.744;10.106;2023-03-14T00:32:40;10.50;62.70
1011;DHT22;494;48.744;10.106;2023-03-14T00:35:08;10.50;62.90
1011;DHT22;494;48.744;10.106;2023-03-14T00:37:37;10.50;62.90
1011;DHT22;494;48.744;10.106;2023-03-14T00:40:07;10.50;62.70
1011;DHT22;494;48.744;10.106;2023-03-14T00:42:36;10.50;62.20
1011;DHT22;494;48.744;10.106;2023-03-14T00:45:06;10.50;61.40
1011;DHT22;494;48.744;10.106;2023-03-14T00:47:37;10.50;61.70
1011;DHT22;494;48.744;10.106;2023-03-14T00:50:06;10.50;61.20
1011;DHT22;494;48.744;10.106;2023-03-14T00:52:36;10.60;61.00
1011;DHT22;494;48.744;10.106;2023-03-14T00:55:06;10.60;60.60
1011;DHT22;494;48.744;10.106;2023-03-14T00:57:34;10.60;60.90
1011;DHT22;494;48.744;10.106;2023-03-14T01:00:04;10.60;60.50
1011;DHT22;494;48.744;10.106;2023-03-14T01:02:36;10.60;60.30
1011;DHT22;494;48.744;10.106;2023-03-14T01:05:05;10.60;59.90
1011;DHT22;494;48.744;10.106;2023-03-14T01:07:34;10.50;60.00
1011;DHT22;494;48.744;10.106;2023-03-14T01:10:04;10.50;59.90
1011;DHT22;494;48.744;10.106;2023-03-14T01:12:33;10.60;59.70
1011;DHT22;494;48.744;10.106;2023-03-14T01:15:02;10.60;59.30
1011;DHT22;494;48.744;10.106;2023-03-14T01:17:31;10.70;58.90
1011;DHT22;494;48.744;10.106;2023-03-14T01:20:02;10.80;58.60
1011;DHT22;494;48.744;10.106;2023-03-14T01:22:32;10.80;58.20
1011;DHT22;494;48.744;10.106;2023-03-14T01:25:00;10.90;57.80
1011;DHT22;494;48.744;10.106;2023-03-14T01:27:30;11.00;57.20
1011;DHT22;494;48.744;10.106;2023-03-14T01:30:01;11.00;57.50
1011;DHT22;494;48.744;10.106;2023-03-14T01:32:31;11.10;56.70
1011;DHT22;494;48.744;10.106;2023-03-14T01:35:02;11.00;55.80
1011;DHT22;494;48.744;10.106;2023-03-14T01:37:31;11.00;55.70
1011;DHT22;494;48.744;10.106;2023-03-14T01:40:00;11.00;55.80
1011;DHT22;494;48.744;10.106;2023-03-14T01:42:30;10.90;54.30
1011;DHT22;494;48.744;10.106;2023-03-14T01:45:00;10.80;55.40
1011;DHT22;494;48.744;10.106;2023-03-14T01:47:29;10.80;56.30
1011;DHT22;494;48.744;10.106;2023-03-14T01:50:01;10.70;55.40
1011;DHT22;494;48.744;10.106;2023-03-14T01:52:35;10.80;55.30
1011;DHT22;494;48.744;10.106;2023-03-14T01:55:12;10.90;55.10
1011;DHT22;494;48.744;10.106;2023-03-14T01:57:44;11.00;54.60
1011;DHT22;494;48.744;10.106;2023-03-14T02:00:18;11.00;53.90
1011;DHT22;494;48.744;10.106;2023-03-14T02:02:51;11.00;53.60
1011;DHT22;494;48.744;10.106;2023-03-14T02:05:27;10.90;53.30
1011;DHT22;494;48.744;10.106;2023-03-14T02:08:02;10.90;53.40
1011;DHT22;494;48.744;10.106;2023-03-14T02:10:38;10.80;53.10
1011;DHT22;494;48.744;10.106;2023-03-14T02:13:09;10.70;53.50
1011;DHT22;494;48.744;10.106;2023-03-14T02:15:39;10.70;53.50
1011;DHT22;494;48.744;10.106;2023-03-14T02:18:09;10.50;53.40
1011;DHT22;494;48.744;10.106;2023-03-14T02:20:47;10.50;54.10
1011;DHT22;494;48.744;10.106;2023-03-14T02:23:26;10.40;54.00
1011;DHT22;494;48.744;10.106;2023-03-14T02:26:01;10.40;54.00
1011;DHT22;494;48.744;10.106;2023-03-14T02:28:35;10.40;54.10
1011;DHT22;494;48.744;10.106;2023-03-14T02:31:04;10.40;54.40
1011;DHT22;494;48.744;10.106;2023-03-14T02:33:37;10.30;54.80
1011;DHT22;494;48.744;10.106;2023-03-14T02:36:09;10.20;55.50
1011;DHT22;494;48.744;10.106;2023-03-14T02:38:45;10.30;55.70
1011;DHT22;494;48.744;10.106;2023-03-14T02:41:20;10.30;55.70
1011;DHT22;494;48.744;10.106;2023-03-14T02:43:50;10.30;55.50
1011;DHT22;494;48.744;10.106;2023-03-14T02:46:20;10.30;55.60
1011;DHT22;494;48.744;10.106;2023-03-14T02:48:53;10.40;55.40
1011;DHT22;494;48.744;10.106;2023-03-14T02:51:24;10.40;55.20
1011;DHT22;494;48.744;10.106;2023-03-14T02:53:55;10.40;55.20
1011;DHT22;494;48.744;10.106;2023-03-14T02:56:23;10.40;55.10
1011;DHT22;494;48.744;10.106;2023-03-14T02:58:53;10.40;55.10
1011;DHT22;494;48.744;10.106;2023-03-14T03:01:24;10.40;55.20
1011;DHT22;494;48.744;10.106;2023-03-14T03:03:53;10.40;54.90
1011;DHT22;494;48.744;10.106;2023-03-14T03:06:22;10.50;54.90
1011;DHT22;494;48.744;10.106;2023-03-14T03:08:50;10.50;54.60
1011;DHT22;494;48.744;10.106;2023-03-14T03:11:20;10.50;54.30
1011;DHT22;494;48.744;10.106;2023-03-14T03:13:48;10.50;54.50
1011;DHT22;494;48.744;10.106;2023-03-14T03:16:18;10.40;54.30
1011;DHT22;494;48.744;10.106;2023-03-14T03:18:46;10.40;54.80
1011;DHT22;494;48.744;10.106;2023-03-14T03:21:15;10.50;54.90
1011;DHT22;494;48.744;10.106;2023-03-14T03:23:44;10.50;54.70
1011;DHT22;494;48.744;10.106;2023-03-14T03:26:13;10.50;54.60
1011;DHT22;494;48.744;10.106;2023-03-14T03:28:41;10.40;55.20
1011;DHT22;494;48.744;10.106;2023-03-14T03:31:11;10.30;54.90
1011;DHT22;494;48.744;10.106;2023-03-14T03:33:41;10.30;55.30
1011;DHT22;494;48.744;10.106;2023-03-14T03:36:10;10.30;55.50
1011;DHT22;494;48.744;10.106;2023-03-14T03:38:39;10.20;55.60
1011;DHT22;494;48.744;10.106;2023-03-14T03:41:07;10.20;56.20
1011;DHT22;494;48.744;10.106;2023-03-14T03:43:36;10.20;55.90
1011;DHT22;494;48.744;10.106;2023-03-14T03:46:06;10.20;55.90
1011;DHT22;494;48.744;10.106;2023-03-14T03:48:35;10.10;56.40
1011;DHT22;494;48.744;10.106;2023-03-14T03:51:06;10.30;56.40
1011;DHT22;494;48.744;10.106;2023-03-14T03:53:34;10.20;55.60
1011;DHT22;494;48.744;10.106;2023-03-14T03:56:03;10.30;55.80
1011;DHT22;494;48.744;10.106;2023-03-14T03:58:32;10.20;55.80
1011;DHT22;494;48.744;10.106;2023-03-14T04:01:01;10.10;56.40
1011;DHT22;494;48.744;10.106;2023-03-14T04:03:29;10.20;56.40
1011;DHT22;494;48.744;10.106;2023-03-14T04:05:59;10.10;56.30
1011;DHT22;494;48.744;10.106;2023-03-14T04:08:30;10.20;56.30
1011;DHT22;494;48.744;10.106;2023-03-14T04:11:00;10.30;56.10
1011;DHT22;494;48.744;10.106;2023-03-14T04:13:30;10.30;55.50
1011;DHT22;494;48.744;10.106;2023-03-14T04:15:58;10.30;56.30
1011;DHT22;494;48.744;10.106;2023-03-14T04:18:28;10.30;55.40
1011;DHT22;494;48.744;10.106;2023-03-14T04:20:57;10.20;55.20
1011;DHT22;494;48.744;10.106;2023-03-14T04:23:26;10.10;56.00
1011;DHT22;494;48.744;10.106;2023-03-14T04:25:56;10.10;56.10
1011;DHT22;494;48.744;10.106;2023-03-14T04:28:25;10.20;55.90
1011;DHT22;494;48.744;10.106;2023-03-14T04:30:54;10.20;55.60
1011;DHT22;494;48.744;10.106;2023-03-14T04:33:23;10.30;55.60
1011;DHT22;494;48.744;10.106;2023-03-14T04:35:53;10.30;55.00
1011;DHT22;494;48.744;10.106;2023-03-14T04:38:23;10.30;54.90
1011;DHT22;494;48.744;10.106;2023-03-14T04:40:51;10.40;54.70
1011;DHT22;494;48.744;10.106;2023-03-14T04:43:21;10.30;54.70
1011;DHT22;494;48.744;10.106;2023-03-14T04:45:49;10.30;55.20
1011;DHT22;494;48.744;10.106;2023-03-14T04:48:18;10.30;54.70
1011;DHT22;494;48.744;10.106;2023-03-14T04:50:47;10.30;54.60
1011;DHT22;494;48.744;10.106;2023-03-14T04:53:17;10.30;54.60
1011;DHT22;494;48.744;10.106;2023-03-14T04:55:48;10.40;54.60
1011;DHT22;494;48.744;10.106;2023-03-14T04:58:17;10.40;54.10
1011;DHT22;494;48.744;10.106;2023-03-14T05:00:48;10.40;54.00
1011;DHT22;494;48.744;10.106;2023-03-14T05:03:18;10.50;53.80
1011;DHT22;494;48.744;10.106;2023-03-14T05:05:47;10.50;53.70
1011;DHT22;494;48.744;10.106;2023-03-14T05:08:15;10.50;53.40
1011;DHT22;494;48.744;10.106;2023-03-14T05:10:43;10.50;53.20
1011;DHT22;494;48.744;10.106;2023-03-14T05:13:12;10.40;53.90
1011;DHT22;494;48.744;10.106;2023-03-14T05:15:40;10.50;53.30
1011;DHT22;494;48.744;10.106;2023-03-14T05:18:10;10.50;53.10
1011;DHT22;494;48.744;10.106;2023-03-14T05:20:39;10.40;52.90
1011;DHT22;494;48.744;10.106;2023-03-14T05:23:08;10.40;53.30
1011;DHT22;494;48.744;10.106;2023-03-14T05:25:36;10.30;53.50
1011;DHT22;494;48.744;10.106;2023-03-14T05:28:05;10.20;53.80
1011;DHT22;494;48.744;10.106;2023-03-14T05:30:34;10.30;53.80
1011;DHT22;494;48.744;10.106;2023-03-14T05:33:02;10.30;53.90
1011;DHT22;494;48.744;10.106;2023-03-14T05:35:33;10.20;53.80
1011;DHT22;494;48.744;10.106;2023-03-14T05:38:01;10.10;53.90
1011;DHT22;494;48.744;10.106;2023-03-14T05:40:30;10.10;53.90
1011;DHT22;494;48.744;10.106;2023-03-14T05:42:58;10.20;53.90
1011;DHT22;494;48.744;10.106;2023-03-14T05:45:27;10.20;53.80
1011;DHT22;494;48.744;10.106;2023-03-14T05:47:55;10.20;53.70
1011;DHT22;494;48.744;10.106;2023-03-14T05:50:23;10.20;53.70
1011;DHT22;494;48.744;10.106;2023-03-14T05:52:53;10.20;53.90
1011;DHT22;494;48.744;10.106;2023-03-14T05:55:22;10.20;53.80
1011;DHT22;494;48.744;10.106;2023-03-14T05:57:51;10.10;54.00
1011;DHT22;494;48.744;10.106;2023-03-14T06:00:21;10.10;54.00
1011;DHT22;494;48.744;10.106;2023-03-14T06:02:50;10.10;53.90
1011;DHT22;494;48.744;10.106;2023-03-14T06:05:19;10.20;53.90
1011;DHT22;494;48.744;10.106;2023-03-14T06:07:47;10.20;53.50
1011;DHT22;494;48.744;10.106;2023-03-14T06:10:17;10.20;53.50
1011;DHT22;494;48.744;10.106;2023-03-14T06:12:46;10.30;53.40
1011;DHT22;494;48.744;10.106;2023-03-14T06:15:16;10.20;53.50
1011;DHT22;494;48.744;10.106;2023-03-14T06:17:45;10.30;53.60
1011;DHT22;494;48.744;10.106;2023-03-14T06:20:14;10.30;53.60
1011;DHT22;494;48.744;10.106;2023-03-14T06:22:42;10.40;53.50
1011;DHT22;494;48.744;10.106;2023-03-14T06:25:11;10.30;53.20
1011;DHT22;494;48.744;10.106;2023-03-14T06:27:41;10.50;53.00
1011;DHT22;494;48.744;10.106;2023-03-14T06:30:10;10.50;52.90
1011;DHT22;494;48.744;10.106;2023-03-14T06:32:39;10.50;52.50
1011;DHT22;494;48.744;10.106;2023-03-14T06:35:08;10.60;52.50
1011;DHT22;494;48.744;10.106;2023-03-14T06:37:37;10.70;52.30
1011;DHT22;494;48.744;10.106;2023-03-14T06:40:06;10.70;52.10
1011;DHT22;494;48.744;10.106;2023-03-14T06:42:35;10.70;51.50
1011;DHT22;494;48.744;10.106;2023-03-14T06:45:07;10.60;51.40
1011;DHT22;494;48.744;10.106;2023-03-14T06:47:36;10.60;51.30
1011;DHT22;494;48.744;10.106;2023-03-14T06:50:06;10.60;51.00
1011;DHT22;494;48.744;10.106;2023-03-14T06:52:35;10.60;49.90
1011;DHT22;494;48.744;10.106;2023-03-14T06:55:05;10.40;50.90
1011;DHT22;494;48.744;10.106;2023-03-14T06:57:34;10.40;50.90
1011;DHT22;494;48.744;10.106;2023-03-14T07:00:08;10.50;51.50
1011;DHT22;494;48.744;10.106;2023-03-14T07:02:38;10.50;50.80
1011;DHT22;494;48.744;10.106;2023-03-14T07:05:09;10.60;50.40
1011;DHT22;494;48.744;10.106;2023-03-14T07:07:38;10.70;50.20
1011;DHT22;494;48.744;10.106;2023-03-14T07:10:08;10.80;49.00
1011;DHT22;494;48.744;10.106;2023-03-14T07:12:37;10.70;48.30
1011;DHT22;494;48.744;10.106;2023-03-14T07:15:08;11.00;48.50
1011;DHT22;494;48.744;10.106;2023-03-14T07:17:45;11.10;48.20
1011;DHT22;494;48.744;10.106;2023-03-14T07:20:15;11.10;47.70
1011;DHT22;494;48.744;10.106;2023-03-14T07:22:47;11.10;47.80
1011;DHT22;494;48.744;10.106;2023-03-14T07:25:16;11.10;47.90
1011;DHT22;494;48.744;10.106;2023-03-14T07:27:45;11.00;47.00
1011;DHT22;494;48.744;10.106;2023-03-14T07:30:16;11.10;47.80
1011;DHT22;494;48.744;10.106;2023-03-14T07:32:45;11.20;47.80
1011;DHT22;494;48.744;10.106;2023-03-14T07:35:14;11.40;47.40
1011;DHT22;494;48.744;10.106;2023-03-14T07:37:43;11.50;46.80
1011;DHT22;494;48.744;10.106;2023-03-14T07:40:12;11.50;46.10
1011;DHT22;494;48.744;10.106;2023-03-14T07:42:42;11.40;44.50
1011;DHT22;494;48.744;10.106;2023-03-14T07:45:11;11.40;45.90
1011;DHT22;494;48.744;10.106;2023-03-14T07:47:42;11.40;45.60
1011;DHT22;494;48.744;10.106;2023-03-14T07:50:10;11.40;46.00
1011;DHT22;494;48.744;10.106;2023-03-14T07:52:39;11.60;45.90
1011;DHT22;494;48.744;10.106;2023-03-14T07:55:08;11.80;45.80
1011;DHT22;494;48.744;10.106;2023-03-14T07:57:37;12.20;44.80
1011;DHT22;494;48.744;10.106;2023-03-14T08:00:07;12.40;42.30
1011;DHT22;494;48.744;10.106;2023-03-14T08:02:36;12.60;41.10
1011;DHT22;494;48.744;10.106;2023-03-14T08:05:08;12.80;40.70
1011;DHT22;494;48.744;10.106;2023-03-14T08:07:37;13.10;39.80
1011;DHT22;494;48.744;10.106;2023-03-14T08:10:07;13.20;39.20
1011;DHT22;494;48.744;10.106;2023-03-14T08:12:36;13.50;39.40
1011;DHT22;494;48.744;10.106;2023-03-14T08:15:06;13.60;36.90
1011;DHT22;494;48.744;10.106;2023-03-14T08:17:35;13.70;35.80
1011;DHT22;494;48.744;10.106;2023-03-14T08:20:04;13.80;34.90
1011;DHT22;494;48.744;10.106;2023-03-14T08:22:38;13.90;35.30
1011;DHT22;494;48.744;10.106;2023-03-14T08:25:07;14.10;34.40
1011;DHT22;494;48.744;10.106;2023-03-14T08:27:37;14.30;34.10
1011;DHT22;494;48.744;10.106;2023-03-14T08:30:07;14.50;32.50
1011;DHT22;494;48.744;10.106;2023-03-14T08:32:38;14.60;31.40
1011;DHT22;494;48.744;10.106;2023-03-14T08:35:15;14.80;31.40
1011;DHT22;494;48.744;10.106;2023-03-14T08:37:44;15.00;29.80
1011;DHT22;494;48.744;10.106;2023-03-14T08:40:13;15.40;29.80
1011;DHT22;494;48.744;10.106;2023-03-14T08:42:44;15.80;26.70
1011;DHT22;494;48.744;10.106;2023-03-14T08:45:15;16.30;26.10
1011;DHT22;494;48.744;10.106;2023-03-14T08:47:45;16.50;24.90
1011;DHT22;494;48.744;10.106;2023-03-14T08:50:15;16.80;24.50
1011;DHT22;494;48.744;10.106;2023-03-14T08:52:44;17.10;20.80
1011;DHT22;494;48.744;10.106;2023-03-14T08:55:13;17.00;21.80
1011;DHT22;494;48.744;10.106;2023-03-14T08:57:42;17.40;21.30
1011;DHT22;494;48.744;10.106;2023-03-14T09:00:11;17.60;20.40
1011;DHT22;494;48.744;10.106;2023-03-14T09:02:42;17.90;18.70
1011;DHT22;494;48.744;10.106;2023-03-14T09:05:11;18.00;17.80
1011;DHT22;494;48.744;10.106;2023-03-14T09:07:43;18.10;17.60
1011;DHT22;494;48.744;10.106;2023-03-14T09:10:11;18.30;16.80
1011;DHT22;494;48.744;10.106;2023-03-14T09:12:41;18.40;16.50
1011;DHT22;494;48.744;10.106;2023-03-14T09:15:10;18.60;15.60
1011;DHT22;494;48.744;10.106;2023-03-14T09:17:39;18.60;15.40
1011;DHT22;494;48.744;10.106;2023-03-14T09:20:11;18.00;15.70
1011;DHT22;494;48.744;10.106;2023-03-14T09:22:45;17.80;16.30
1011;DHT22;494;48.744;10.106;2023-03-14T09:25:14;18.10;15.10
1011;DHT22;494;48.744;10.106;2023-03-14T09:27:43;18.30;15.20
1011;DHT22;494;48.744;10.106;2023-03-14T09:30:12;18.30;16.40
1011;DHT22;494;48.744;10.106;2023-03-14T09:32:41;18.30;15.40
1011;DHT22;494;48.744;10.106;2023-03-14T09:35:10;17.30;16.30
1011;DHT22;494;48.744;10.106;2023-03-14T09:37:39;16.90;18.00
1011;DHT22;494;48.744;10.106;2023-03-14T09:40:13;16.70;18.50
1011;DHT22;494;48.744;10.106;2023-03-14T09:42:44;16.60;17.90
1011;DHT22;494;48.744;10.106;2023-03-14T09:45:17;16.30;19.50
1011;DHT22;494;48.744;10.106;2023-03-14T09:47:52;16.40;19.20
1011;DHT22;494;48.744;10.106;2023-03-14T09:50:27;16.40;19.70
1011;DHT22;494;48.744;10.106;2023-03-14T09:53:04;16.10;19.30
1011;DHT22;494;48.744;10.106;2023-03-14T09:55:38;16.00;18.70
1011;DHT22;494;48.744;10.106;2023-03-14T09:58:11;15.90;19.30
1011;DHT22;494;48.744;10.106;2023-03-14T10:00:41;15.80;19.00
1011;DHT22;494;48.744;10.106;2023-03-14T10:03:29;16.00;18.80
1011;DHT22;494;48.744;10.106;2023-03-14T10:06:00;15.80;19.10
1011;DHT22;494;48.744;10.106;2023-03-14T10:08:29;16.00;19.10
1011;DHT22;494;48.744;10.106;2023-03-14T10:10:59;16.20;18.90
1011;DHT22;494;48.744;10.106;2023-03-14T10:13:28;16.40;18.70
1011;DHT22;494;48.744;10.106;2023-03-14T10:16:00;16.70;18.10
1011;DHT22;494;48.744;10.106;2023-03-14T10:18:33;16.70;17.00
1011;DHT22;494;48.744;10.106;2023-03-14T10:21:05;16.80;17.90
1011;DHT22;494;48.744;10.106;2023-03-14T10:23:44;16.80;17.00
1011;DHT22;494;48.744;10.106;2023-03-14T10:26:19;17.00;17.20
1011;DHT22;494;48.744;10.106;2023-03-14T10:28:53;17.40;17.10
1011;DHT22;494;48.744;10.106;2023-03-14T10:31:46;18.30;16.60
1011;DHT22;494;48.744;10.106;2023-03-14T10:34:22;19.50;13.70
1011;DHT22;494;48.744;10.106;2023-03-14T10:36:55;20.40;12.40
1011;DHT22;494;48.744;10.106;2023-03-14T10:39:35;21.30;10.80
1011;DHT22;494;48.744;10.106;2023-03-14T10:42:19;21.30;9.90
1011;DHT22;494;48.744;10.106;2023-03-14T10:44:55;20.50;11.60
1011;DHT22;494;48.744;10.106;2023-03-14T10:47:27;19.80;12.10
1011;DHT22;494;48.744;10.106;2023-03-14T10:49:56;19.00;13.50
1011;DHT22;494;48.744;10.106;2023-03-14T10:52:47;18.20;14.60
1011;DHT22;494;48.744;10.106;2023-03-14T10:55:28;17.40;16.00
1011;DHT22;494;48.744;10.106;2023-03-14T10:58:24;16.80;17.20
1011;DHT22;494;48.744;10.106;2023-03-14T11:01:21;16.50;17.90
1011;DHT22;494;48.744;10.106;2023-03-14T11:04:01;16.10;17.40
1011;DHT22;494;48.744;10.106;2023-03-14T11:06:41;16.30;17.00
1011;DHT22;494;48.744;10.106;2023-03-14T11:09:22;16.30;16.50
1011;DHT22;494;48.744;10.106;2023-03-14T11:12:01;16.70;16.00
1011;DHT22;494;48.744;10.106;2023-03-14T11:14:51;16.70;16.50
1011;DHT22;494;48.744;10.106;2023-03-14T11:17:29;17.10;16.50
1011;DHT22;494;48.744;10.106;2023-03-14T11:20:17;17.80;14.20
1011;DHT22;494;48.744;10.106;2023-03-14T11:23:04;19.30;11.90
1011;DHT22;494;48.744;10.106;2023-03-14T11:25:47;20.30;10.60
1011;DHT22;494;48.744;10.106;2023-03-14T11:28:25;21.40;8.50
1011;DHT22;494;48.744;10.106;2023-03-14T11:31:06;21.20;9.20
1011;DHT22;494;48.744;10.106;2023-03-14T11:33:48;21.70;7.90
1011;DHT22;494;48.744;10.106;2023-03-14T11:36:28;21.10;8.30
1011;DHT22;494;48.744;10.106;2023-03-14T11:39:00;20.10;10.50
1011;DHT22;494;48.744;10.106;2023-03-14T11:41:32;19.40;11.20
1011;DHT22;494;48.744;10.106;2023-03-14T11:44:10;18.80;12.50
1011;DHT22;494;48.744;10.106;2023-03-14T11:46:50;18.20;13.90
1011;DHT22;494;48.744;10.106;2023-03-14T11:49:31;17.80;14.10
1011;DHT22;494;48.744;10.106;2023-03-14T11:52:10;17.20;16.20
1011;DHT22;494;48.744;10.106;2023-03-14T11:54:47;16.60;18.00
1011;DHT22;494;48.744;10.106;2023-03-14T11:57:21;16.30;18.30
1011;DHT22;494;48.744;10.106;2023-03-14T11:59:55;16.40;19.80
1011;DHT22;494;48.744;10.106;2023-03-14T12:02:39;16.10;22.00
1011;DHT22;494;48.744;10.106;2023-03-14T12:05:37;15.70;28.30
1011;DHT22;494;48.744;10.106;2023-03-14T12:08:38;15.00;29.80
1011;DHT22;494;48.744;10.106;2023-03-14T12:11:14;14.90;32.10
1011;DHT22;494;48.744;10.106;2023-03-14T12:14:00;14.70;32.90
1011;DHT22;494;48.744;10.106;2023-03-14T12:16:35;14.60;32.50
1011;DHT22;494;48.744;10.106;2023-03-14T12:19:39;14.60;34.60
1011;DHT22;494;48.744;10.106;2023-03-14T12:22:27;14.70;35.00
1011;DHT22;494;48.744;10.106;2023-03-14T12:25:02;14.70;35.40
1011;DHT22;494;48.744;10.106;2023-03-14T12:30:45;14.40;37.30
1011;DHT22;494;48.744;10.106;2023-03-14T12:33:27;14.20;39.10
1011;DHT22;494;48.744;10.106;2023-03-14T12:36:00;13.90;39.30
1011;DHT22;494;48.744;10.106;2023-03-14T12:38:52;13.90;42.10
1011;DHT22;494;48.744;10.106;2023-03-14T12:41:36;13.70;42.50
1011;DHT22;494;48.744;10.106;2023-03-14T12:44:37;13.50;41.40
1011;DHT22;494;48.744;10.106;2023-03-14T12:47:52;13.30;43.30
1011;DHT22;494;48.744;10.106;2023-03-14T12:50:34;13.00;42.60
1011;DHT22;494;48.744;10.106;2023-03-14T12:53:41;12.70;44.70
1011;DHT22;494;48.744;10.106;2023-03-14T12:56:25;12.50;45.40
1011;DHT22;494;48.744;10.106;2023-03-14T13:02:26;12.50;46.90
1011;DHT22;494;48.744;10.106;2023-03-14T13:05:57;12.40;47.80
1011;DHT22;494;48.744;10.106;2023-03-14T13:14:41;12.10;49.40
1011;DHT22;494;48.744;10.106;2023-03-14T13:18:16;11.90;49.40
1011;DHT22;494;48.744;10.106;2023-03-14T13:20:58;11.40;50.70
1011;DHT22;494;48.744;10.106;2023-03-14T13:24:00;11.30;52.00
1011;DHT22;494;48.744;10.106;2023-03-14T13:26:43;11.10;52.00
1011;DHT22;494;48.744;10.106;2023-03-14T13:29:19;11.00;52.70
1011;DHT22;494;48.744;10.106;2023-03-14T13:32:17;10.90;52.90
1011;DHT22;494;48.744;10.106;2023-03-14T13:34:56;10.90;53.40
1011;DHT22;494;48.744;10.106;2023-03-14T13:37:26;10.70;52.50
1011;DHT22;494;48.744;10.106;2023-03-14T13:39:57;10.60;54.40
1011;DHT22;494;48.744;10.106;2023-03-14T13:42:29;10.50;53.30
1011;DHT22;494;48.744;10.106;2023-03-14T13:44:58;10.40;50.50
1011;DHT22;494;48.744;10.106;2023-03-14T13:47:29;10.20;53.00
1011;DHT22;494;48.744;10.106;2023-03-14T13:50:01;10.20;52.60
1011;DHT22;494;48.744;10.106;2023-03-14T13:52:32;10.20;48.90
1011;DHT22;494;48.744;10.106;2023-03-14T13:55:06;10.50;44.40
1011;DHT22;494;48.744;10.106;2023-03-14T13:57:44;10.40;40.50
1011;DHT22;494;48.744;10.106;2023-03-14T14:00:19;10.20;38.60
1011;DHT22;494;48.744;10.106;2023-03-14T14:02:51;10.10;40.20
1011;DHT22;494;48.744;10.106;2023-03-14T14:05:21;9.90;36.90
1011;DHT22;494;48.744;10.106;2023-03-14T14:07:51;9.90;39.80
1011;DHT22;494;48.744;10.106;2023-03-14T14:10:21;10.00;38.00
1011;DHT22;494;48.744;10.106;2023-03-14T14:12:53;10.30;35.90
1011;DHT22;494;48.744;10.106;2023-03-14T14:15:28;11.00;29.20
1011;DHT22;494;48.744;10.106;2023-03-14T14:18:02;12.40;24.60
1011;DHT22;494;48.744;10.106;2023-03-14T14:20:40;12.70;20.10
1011;DHT22;494;48.744;10.106;2023-03-14T14:23:16;11.80;19.80
1011;DHT22;494;48.744;10.106;2023-03-14T14:25:52;11.10;22.40
1011;DHT22;494;48.744;10.106;2023-03-14T14:28:25;10.40;24.30
1011;DHT22;494;48.744;10.106;2023-03-14T14:31:05;10.00;24.10
1011;DHT22;494;48.744;10.106;2023-03-14T14:33:54;9.50;24.80
1011;DHT22;494;48.744;10.106;2023-03-14T14:36:28;9.40;28.20
1011;DHT22;494;48.744;10.106;2023-03-14T14:39:00;9.60;26.90
1011;DHT22;494;48.744;10.106;2023-03-14T14:41:35;9.60;22.50
1011;DHT22;494;48.744;10.106;2023-03-14T14:44:12;9.60;24.80
1011;DHT22;494;48.744;10.106;2023-03-14T14:46:44;10.30;21.20
1011;DHT22;494;48.744;10.106;2023-03-14T14:49:19;10.60;20.60
1011;DHT22;494;48.744;10.106;2023-03-14T14:51:50;10.60;19.80
1011;DHT22;494;48.744;10.106;2023-03-14T14:54:31;10.80;19.90
1011;DHT22;494;48.744;10.106;2023-03-14T14:57:04;10.70;21.40
1011;DHT22;494;48.744;10.106;2023-03-14T14:59:42;10.60;19.60
1011;DHT22;494;48.744;10.106;2023-03-14T15:02:31;10.40;19.20
1011;DHT22;494;48.744;10.106;2023-03-14T15:05:05;10.60;17.10
1011;DHT22;494;48.744;10.106;2023-03-14T15:07:41;10.30;16.40
1011;DHT22;494;48.744;10.106;2023-03-14T15:10:11;10.10;16.30
1011;DHT22;494;48.744;10.106;2023-03-14T15:12:41;9.80;16.70
1011;DHT22;494;48.744;10.106;2023-03-14T15:15:15;9.90;18.20
1011;DHT22;494;48.744;10.106;2023-03-14T15:17:44;10.10;16.20
1011;DHT22;494;48.744;10.106;2023-03-14T15:20:15;10.30;15.20
1011;DHT22;494;48.744;10.106;2023-03-14T15:22:46;10.80;14.00
1011;DHT22;494;48.744;10.106;2023-03-14T15:25:15;11.20;13.60
1011;DHT22;494;48.744;10.106;2023-03-14T15:28:11;11.50;11.90
1011;DHT22;494;48.744;10.106;2023-03-14T15:30:57;11.50;11.80
1011;DHT22;494;48.744;10.106;2023-03-14T15:33:27;11.60;10.80
1011;DHT22;494;48.744;10.106;2023-03-14T15:35:56;11.60;11.00
1011;DHT22;494;48.744;10.106;2023-03-14T15:38:26;11.50;12.10
1011;DHT22;494;48.744;10.106;2023-03-14T15:40:55;11.50;12.30
1011;DHT22;494;48.744;10.106;2023-03-14T15:43:24;11.00;11.90
1011;DHT22;494;48.744;10.106;2023-03-14T15:45:53;10.20;12.70
1011;DHT22;494;48.744;10.106;2023-03-14T15:48:23;9.90;14.90
1011;DHT22;494;48.744;10.106;2023-03-14T15:50:52;9.70;15.00
1011;DHT22;494;48.744;10.106;2023-03-14T15:53:21;9.50;15.40
1011;DHT22;494;48.744;10.106;2023-03-14T16:03:38;9.60;16.20
1011;DHT22;494;48.744;10.106;2023-03-14T16:10:19;10.00;15.70
1011;DHT22;494;48.744;10.106;2023-03-14T16:12:56;10.10;14.60
1011;DHT22;494;48.744;10.106;2023-03-14T16:15:27;10.30;13.80
1011;DHT22;494;48.744;10.106;2023-03-14T16:17:56;10.60;13.40
1011;DHT22;494;48.744;10.106;2023-03-14T16:20:28;10.90;13.20
1011;DHT22;494;48.744;10.106;2023-03-14T16:23:13;11.10;12.80
1011;DHT22;494;48.744;10.106;2023-03-14T16:25:44;10.80;12.60
1011;DHT22;494;48.744;10.106;2023-03-14T16:28:13;10.30;13.20
1011;DHT22;494;48.744;10.106;2023-03-14T16:30:42;10.00;13.80
1011;DHT22;494;48.744;10.106;2023-03-14T16:33:11;10.00;14.00
1011;DHT22;494;48.744;10.106;2023-03-14T16:35:41;9.90;14.60
1011;DHT22;494;48.744;10.106;2023-03-14T16:38:21;10.10;14.40
1011;DHT22;494;48.744;10.106;2023-03-14T16:40:57;9.80;14.30
1011;DHT22;494;48.744;10.106;2023-03-14T16:43:31;9.50;14.40
1011;DHT22;494;48.744;10.106;2023-03-14T16:46:16;9.30;15.40
1011;DHT22;494;48.744;10.106;2023-03-14T16:48:57;9.00;15.90
1011;DHT22;494;48.744;10.106;2023-03-14T16:51:35;8.70;15.80
1011;DHT22;494;48.744;10.106;2023-03-14T16:54:39;8.70;16.60
1011;DHT22;494;48.744;10.106;2023-03-14T16:57:15;8.50;16.80
1011;DHT22;494;48.744;10.106;2023-03-14T16:59:45;8.70;17.70
1011;DHT22;494;48.744;10.106;2023-03-14T17:02:14;8.60;16.90
1011;DHT22;494;48.744;10.106;2023-03-14T17:04:43;8.60;17.30